Time;durP1;ratioP1;P1;durP2;ratioP2;P2;SDS_P1;SDS_P2;PMS_P1;PMS_P2;Temp;Humidity;BMP_temperature;BMP_pressure;BME280_temperature;BME280_humidity;BME280_pressure;Samples;Min_cycle;Max_cycle;Signal;HPM_P1;HPM_P2
2023/07/13 10:14:02;;;;;;;0.82;0.50;;;23.20;99.90;;;;;;4989896;28;20064;-79
2023/07/13 10:16:32;;;;;;;0.60;0.50;;;23.50;99.90;;;;;;4984764;28;20398;-80
2023/07/13 10:19:25;;;;;;;1.02;0.50;;;23.40;99.90;;;;;;4991085;28;20149;-79
2023/07/13 10:21:54;;;;;;;1.33;0.80;;;23.00;99.90;;;;;;4987655;28;20057;-78
2023/07/13 10:24:27;;;;;;;0.45;0.45;;;22.90;99.90;;;;;;5001719;28;20053;-80
2023/07/13 10:27:16;;;;;;;0.68;0.68;;;22.70;99.90;;;;;;4967653;28;20046;-82
2023/07/13 10:29:59;;;;;;;0.57;0.40;;;22.80;99.90;;;;;;5004070;28;20052;-78
2023/07/13 10:32:25;;;;;;;;;;;22.90;99.90;;;;;;4998209;28;20080;-81
2023/07/13 10:34:55;;;;;;;0.68;0.50;;;23.00;99.90;;;;;;5008304;28;19972;-80
2023/07/13 10:37:27;;;;;;;0.43;0.40;;;23.10;99.90;;;;;;4983750;28;20057;-80
2023/07/13 10:39:55;;;;;;;0.77;0.50;;;23.00;99.90;;;;;;4979233;28;20042;-79
2023/07/13 10:42:32;;;;;;;0.85;0.50;;;22.90;99.90;;;;;;4945643;28;20058;-82
2023/07/13 10:44:59;;;;;;;0.82;0.70;;;22.70;99.90;;;;;;4987229;28;20112;-82
2023/07/13 10:47:25;;;;;;;0.50;0.50;;;22.50;99.90;;;;;;4968980;28;20073;-85
2023/07/13 10:49:56;;;;;;;0.80;0.50;;;22.30;99.90;;;;;;4970651;28;20061;-86
2023/07/13 10:52:57;;;;;;;1.15;0.60;;;22.20;99.90;;;;;;4967227;28;20104;-86
2023/07/13 10:55:31;;;;;;;0.75;0.45;;;22.00;99.90;;;;;;4951511;28;20050;-80
2023/07/13 10:58:18;;;;;;;1.13;0.70;;;21.70;99.90;;;;;;4991565;28;20050;-79
2023/07/13 11:01:07;;;;;;;1.42;0.40;;;21.60;99.90;;;;;;4988070;28;20050;-82
2023/07/13 11:03:37;;;;;;;0.63;0.40;;;21.70;99.90;;;;;;5004064;28;20212;-81
2023/07/13 11:06:17;;;;;;;0.93;0.50;;;21.90;99.90;;;;;;4969188;28;20053;-79
2023/07/13 11:08:47;;;;;;;0.80;0.50;;;22.20;99.90;;;;;;5001679;28;20064;-78
2023/07/13 11:11:23;;;;;;;0.82;0.43;;;22.60;99.90;;;;;;5002420;28;20061;-81
2023/07/13 11:13:54;;;;;;;1.02;0.50;;;23.00;99.90;;;;;;5002307;28;20176;-78
2023/07/13 11:16:23;;;;;;;0.52;0.30;;;23.10;99.90;;;;;;4984621;28;20050;-85
2023/07/13 11:18:52;;;;;;;0.82;0.50;;;23.10;99.90;;;;;;5002674;28;20061;-80
2023/07/13 11:21:19;;;;;;;0.50;0.30;;;23.20;99.90;;;;;;4981172;28;20050;-88
2023/07/13 11:24:05;;;;;;;0.40;0.40;;;23.40;99.90;;;;;;4978043;28;20173;-82
2023/07/13 11:26:45;;;;;;;0.63;0.40;;;23.30;99.90;;;;;;4980547;28;20060;-81
2023/07/13 11:29:15;;;;;;;0.60;0.40;;;23.00;99.90;;;;;;5003351;28;20153;-79
2023/07/13 11:31:45;;;;;;;0.90;0.50;;;22.90;99.90;;;;;;4994190;28;20708;-78
2023/07/13 11:34:13;;;;;;;0.75;0.52;;;23.10;99.90;;;;;;5005585;28;20073;-79
2023/07/13 11:36:43;;;;;;;0.75;0.52;;;23.90;99.90;;;;;;5000070;28;20089;-80
2023/07/13 11:39:18;;;;;;;0.65;0.45;;;24.20;99.60;;;;;;4964701;28;20058;-79
2023/07/13 11:41:49;;;;;;;1.10;0.77;;;24.30;99.30;;;;;;4993145;28;20050;-80
2023/07/13 11:44:20;;;;;;;0.50;0.40;;;24.10;98.70;;;;;;4988031;28;20050;-81
2023/07/13 11:47:00;;;;;;;0.82;0.57;;;23.50;99.30;;;;;;4957508;28;20065;-80
2023/07/13 11:49:30;;;;;;;1.20;0.68;;;23.00;99.90;;;;;;4989809;28;20058;-79
2023/07/13 11:51:59;;;;;;;2.15;0.50;;;23.00;99.90;;;;;;4987480;28;20119;-80
2023/07/13 11:54:27;;;;;;;0.70;0.55;;;23.00;99.80;;;;;;4970180;28;20108;-81
2023/07/13 11:57:06;;;;;;;0.60;0.60;;;23.00;99.70;;;;;;5000371;28;20136;-79
2023/07/13 11:59:33;;;;;;;0.35;0.35;;;23.00;99.90;;;;;;4955646;28;20093;-78
2023/07/13 12:02:00;;;;;;;0.45;0.40;;;23.00;99.90;;;;;;4967893;28;20050;-81
2023/07/13 12:04:31;;;;;;;1.48;0.60;;;22.90;99.90;;;;;;4988578;28;20058;-80
2023/07/13 12:07:03;;;;;;;2.25;0.50;;;22.60;99.90;;;;;;4986203;28;20057;-83
2023/07/13 12:09:30;;;;;;;0.60;0.60;;;22.20;99.90;;;;;;5003769;28;20631;-79
2023/07/13 12:12:00;;;;;;;0.60;0.50;;;21.90;99.90;;;;;;5009446;28;20049;-80
2023/07/13 12:14:27;;;;;;;0.70;0.43;;;21.70;99.90;;;;;;4976322;28;20060;-78
2023/07/13 12:16:54;;;;;;;0.95;0.65;;;21.40;99.90;;;;;;4976514;28;20523;-81
2023/07/13 12:19:23;;;;;;;1.30;1.00;;;20.80;99.90;;;;;;5008058;28;20037;-81
2023/07/13 12:21:52;;;;;;;1.27;0.60;;;20.30;99.90;;;;;;4984266;28;20050;-82
2023/07/13 12:24:20;;;;;;;1.13;0.65;;;19.80;99.90;;;;;;4965884;28;20558;-85
2023/07/13 12:26:55;;;;;;;1.35;0.60;;;19.30;99.90;;;;;;4952209;28;20054;-84
2023/07/13 12:29:22;;;;;;;0.68;0.63;;;19.00;99.90;;;;;;4968236;28;20058;-81
2023/07/13 12:31:49;;;;;;;0.90;0.50;;;19.10;99.90;;;;;;4971726;28;20127;-84
2023/07/13 12:34:20;;;;;;;0.98;0.55;;;19.30;99.90;;;;;;4971755;28;20053;-81
2023/07/13 12:37:01;;;;;;;1.10;0.55;;;19.60;99.90;;;;;;4941306;28;20046;-83
2023/07/13 12:39:38;;;;;;;1.50;0.70;;;19.90;99.90;;;;;;4955515;28;20058;-83
2023/07/13 12:42:21;;;;;;;0.60;0.60;;;20.10;99.90;;;;;;4980768;28;20050;-81
2023/07/13 12:44:48;;;;;;;0.93;0.63;;;20.20;99.90;;;;;;4981822;28;20501;-82
2023/07/13 12:47:15;;;;;;;1.00;0.70;;;20.30;99.90;;;;;;4970869;28;20061;-80
2023/07/13 12:49:47;;;;;;;0.75;0.60;;;20.40;99.90;;;;;;4954997;28;20398;-84
2023/07/13 12:52:17;;;;;;;1.10;0.60;;;20.40;99.90;;;;;;4967796;28;20054;-81
2023/07/13 12:54:56;;;;;;;1.05;0.70;;;20.50;99.90;;;;;;4968749;28;20058;-82
2023/07/13 12:57:32;;;;;;;0.85;0.70;;;20.60;99.90;;;;;;4975950;28;20092;-83
2023/07/13 12:59:59;;;;;;;0.93;0.70;;;20.70;99.90;;;;;;5005548;28;20100;-81
2023/07/13 13:02:31;;;;;;;0.75;0.70;;;20.80;99.90;;;;;;4956657;28;20081;-83
2023/07/13 13:04:58;;;;;;;1.25;0.75;;;21.00;99.90;;;;;;5004639;28;20449;-80
2023/07/13 13:07:25;;;;;;;1.23;0.73;;;21.30;99.90;;;;;;4972436;28;20145;-81
2023/07/13 13:09:55;;;;;;;1.08;0.63;;;21.50;99.90;;;;;;4971732;28;20107;-81
2023/07/13 13:12:25;;;;;;;0.73;0.57;;;21.50;99.90;;;;;;4972690;28;20058;-81
2023/07/13 13:14:53;;;;;;;0.75;0.50;;;21.40;99.90;;;;;;4972200;28;20056;-81
2023/07/13 13:17:21;;;;;;;1.25;0.70;;;21.40;99.90;;;;;;4972557;28;20057;-82
2023/07/13 13:19:48;;;;;;;0.82;0.65;;;21.30;99.90;;;;;;4988061;28;20046;-81
2023/07/13 13:22:15;;;;;;;0.98;0.70;;;21.20;99.90;;;;;;4987831;28;20640;-80
2023/07/13 13:24:42;;;;;;;1.10;0.60;;;21.10;99.90;;;;;;4967772;28;20497;-81
2023/07/13 13:27:17;;;;;;;0.90;0.65;;;21.20;99.90;;;;;;4961406;28;20047;-81
2023/07/13 13:29:45;;;;;;;1.13;0.57;;;21.20;99.90;;;;;;4969728;28;20160;-79
2023/07/13 13:32:12;;;;;;;1.05;0.68;;;21.30;99.90;;;;;;4954269;28;20076;-82
2023/07/13 13:34:39;;;;;;;1.20;0.80;;;21.40;99.90;;;;;;5009398;28;20054;-83
2023/07/13 13:37:20;;;;;;;1.50;0.80;;;21.50;99.90;;;;;;5010093;28;20129;-79
2023/07/13 13:39:47;;;;;;;1.70;0.75;;;21.90;99.90;;;;;;4992362;28;20104;-79
2023/07/13 13:42:33;;;;;;;1.05;0.80;;;22.50;99.90;;;;;;4994737;28;20564;-79
2023/07/13 13:45:00;;;;;;;0.60;0.50;;;23.80;99.90;;;;;;5009439;28;20076;-79
2023/07/13 13:47:34;;;;;;;1.65;0.88;;;24.10;99.90;;;;;;5009775;28;20074;-79
2023/07/13 13:50:10;;;;;;;0.93;0.60;;;24.30;99.90;;;;;;4976610;28;20054;-79
2023/07/13 13:52:37;;;;;;;1.02;0.55;;;24.00;99.90;;;;;;4975529;28;20046;-78
2023/07/13 13:55:14;;;;;;;1.30;0.65;;;24.00;99.90;;;;;;4990573;28;20057;-78
2023/07/13 13:57:41;;;;;;;0.20;0.20;;;23.80;99.90;;;;;;4991498;28;20054;-78
2023/07/13 14:00:14;;;;;;;0.40;0.40;;;23.40;99.90;;;;;;4991012;28;20062;-79
2023/07/13 14:02:42;;;;;;;1.02;0.52;;;23.00;99.90;;;;;;4960312;28;20082;-78
2023/07/13 14:05:10;;;;;;;1.05;0.75;;;22.80;99.90;;;;;;4990738;28;20054;-79
2023/07/13 14:07:37;;;;;;;1.30;0.63;;;22.50;99.90;;;;;;4970372;28;20100;-79
2023/07/13 14:10:12;;;;;;;1.38;0.63;;;22.20;99.90;;;;;;4987710;28;20054;-81
2023/07/13 14:12:40;;;;;;;0.98;0.60;;;22.00;99.90;;;;;;4972488;28;20053;-88
2023/07/13 14:15:16;;;;;;;1.20;0.63;;;21.80;99.90;;;;;;4998431;28;20054;-82
2023/07/13 14:17:43;;;;;;;0.73;0.60;;;21.80;99.90;;;;;;5005618;28;20512;-77
2023/07/13 14:20:11;;;;;;;1.85;0.60;;;21.80;99.90;;;;;;5006151;28;20486;-83
2023/07/13 14:22:39;;;;;;;0.73;0.63;;;22.00;99.90;;;;;;4986234;28;20046;-82
2023/07/13 14:25:06;;;;;;;0.95;0.45;;;22.10;99.90;;;;;;4992775;28;20608;-84
2023/07/13 14:27:33;;;;;;;0.60;0.50;;;22.20;99.90;;;;;;5002590;28;20054;-77
2023/07/13 14:30:00;;;;;;;0.85;0.60;;;22.20;99.90;;;;;;4995888;28;20046;-81
2023/07/13 14:32:27;;;;;;;1.30;0.75;;;22.20;99.90;;;;;;5003833;28;20065;-80
2023/07/13 14:34:54;;;;;;;0.85;0.60;;;22.30;99.90;;;;;;5002854;28;20050;-80
2023/07/13 14:37:21;;;;;;;0.93;0.80;;;22.50;99.90;;;;;;4989886;28;20153;-78
2023/07/13 14:39:48;;;;;;;0.88;0.60;;;23.10;99.90;;;;;;5001076;28;20532;-79
2023/07/13 14:42:15;;;;;;;1.33;0.70;;;24.00;99.90;;;;;;4998635;28;20070;-78
2023/07/13 14:44:42;;;;;;;0.75;0.75;;;24.80;99.40;;;;;;5001077;28;20151;-78
2023/07/13 14:47:08;;;;;;;1.10;0.70;;;25.60;98.60;;;;;;5006198;28;20100;-78
2023/07/13 14:49:40;;;;;;;1.33;0.82;;;26.20;97.70;;;;;;5006375;28;20057;-80
2023/07/13 14:52:18;;;;;;;1.17;0.90;;;26.00;97.10;;;;;;5008382;28;20053;-83
2023/07/13 14:54:45;;;;;;;1.23;0.70;;;26.80;96.80;;;;;;5006785;28;20080;-83
2023/07/13 14:57:13;;;;;;;1.25;0.70;;;27.80;95.00;;;;;;4997414;28;20052;-80
2023/07/13 14:59:44;;;;;;;0.80;0.60;;;26.90;95.20;;;;;;5005727;28;20139;-80
2023/07/13 15:02:32;;;;;;;1.50;0.90;;;26.50;95.80;;;;;;5002189;28;20049;-81
2023/07/13 15:04:59;;;;;;;1.35;1.02;;;27.20;95.40;;;;;;4997485;28;20492;-79
2023/07/13 15:07:26;;;;;;;0.95;0.60;;;27.80;94.20;;;;;;5005621;28;20101;-79
2023/07/13 15:09:53;;;;;;;0.63;0.50;;;27.20;94.70;;;;;;5004912;28;20177;-84
2023/07/13 15:12:20;;;;;;;1.15;0.65;;;26.30;94.80;;;;;;5001276;28;20128;-84
2023/07/13 15:14:47;;;;;;;1.35;0.63;;;26.00;95.00;;;;;;4973852;28;20054;-84
2023/07/13 15:17:36;;;;;;;0.98;0.68;;;25.90;95.50;;;;;;4970054;28;20085;-80
2023/07/13 15:20:17;;;;;;;0.60;0.60;;;26.40;95.40;;;;;;4965379;28;20112;-82
2023/07/13 15:22:44;;;;;;;0.80;0.75;;;26.90;94.30;;;;;;4998272;28;20115;-81
2023/07/13 15:25:15;;;;;;;1.15;0.77;;;27.10;94.40;;;;;;4962076;28;20058;-85
2023/07/13 15:27:42;;;;;;;0.70;0.60;;;28.10;94.20;;;;;;4958064;28;20061;-79
2023/07/13 15:30:09;;;;;;;1.60;0.80;;;28.90;93.50;;;;;;4966371;28;20392;-85
2023/07/13 15:32:40;;;;;;;1.27;0.70;;;28.20;93.40;;;;;;4952167;28;20115;-78
2023/07/13 15:35:18;;;;;;;2.67;0.73;;;27.20;93.80;;;;;;4951234;28;20045;-80
2023/07/13 15:37:46;;;;;;;1.77;0.93;;;26.50;94.00;;;;;;4983893;28;20054;-79
2023/07/13 15:40:13;;;;;;;0.95;0.80;;;27.50;93.70;;;;;;4943017;28;20089;-77
2023/07/13 15:42:41;;;;;;;1.65;0.90;;;27.80;92.80;;;;;;4982297;28;20053;-79
2023/07/13 15:45:21;;;;;;;1.10;0.80;;;28.90;92.40;;;;;;4981749;28;20054;-77
2023/07/13 15:47:49;;;;;;;2.42;1.20;;;29.10;91.60;;;;;;4965746;28;20104;-77
2023/07/13 15:50:20;;;;;;;1.77;0.98;;;29.10;91.50;;;;;;4999456;28;20544;-78
2023/07/13 15:52:49;;;;;;;1.73;0.90;;;29.20;91.10;;;;;;4951053;28;20666;-76
2023/07/13 15:55:16;;;;;;;2.50;0.95;;;29.30;91.10;;;;;;4979524;28;20552;-78
2023/07/13 15:57:47;;;;;;;2.13;1.00;;;28.20;91.20;;;;;;4949851;28;20054;-80
2023/07/13 16:00:27;;;;;;;1.10;0.80;;;28.10;91.30;;;;;;4947516;28;20050;-79
2023/07/13 16:02:54;;;;;;;0.95;0.85;;;27.60;91.50;;;;;;4961462;28;20069;-78
2023/07/13 16:05:22;;;;;;;1.15;0.80;;;27.20;91.90;;;;;;4966334;28;20053;-79
2023/07/13 16:07:49;;;;;;;1.35;0.85;;;27.90;91.40;;;;;;4966173;28;20505;-81
2023/07/13 16:10:29;;;;;;;1.67;1.00;;;28.70;91.30;;;;;;4949432;28;20586;-79
2023/07/13 16:12:56;;;;;;;2.80;1.10;;;28.40;91.20;;;;;;4972159;28;20066;-80
2023/07/13 16:15:23;;;;;;;1.25;1.05;;;29.20;90.90;;;;;;4960195;28;20887;-77
2023/07/13 16:17:51;;;;;;;2.60;1.25;;;29.50;90.10;;;;;;4977952;28;20042;-81
2023/07/13 16:20:20;;;;;;;2.78;1.10;;;29.60;90.20;;;;;;4962459;28;20077;-83
2023/07/13 16:22:50;;;;;;;1.67;1.05;;;28.60;90.50;;;;;;4946593;28;20058;-78
2023/07/13 16:25:23;;;;;;;2.25;1.00;;;27.60;91.00;;;;;;4944778;28;20046;-83
2023/07/13 16:27:51;;;;;;;1.90;0.90;;;26.40;91.80;;;;;;4945711;28;21490;-78
2023/07/13 16:30:26;;;;;;;2.30;1.10;;;25.80;92.90;;;;;;4978348;28;20073;-81
2023/07/13 16:32:53;;;;;;;2.38;1.00;;;24.90;93.10;;;;;;4959142;28;20120;-77
2023/07/13 16:35:25;;;;;;;1.23;0.82;;;24.30;93.70;;;;;;4938029;28;20465;-79
2023/07/13 16:37:52;;;;;;;2.17;0.90;;;24.00;94.40;;;;;;4979874;28;20046;-77
2023/07/13 16:40:31;;;;;;;1.75;0.70;;;23.80;94.70;;;;;;4934753;28;20624;-77
2023/07/13 16:42:58;;;;;;;1.52;0.80;;;23.60;96.40;;;;;;4956521;28;20050;-76
2023/07/13 16:45:30;;;;;;;1.95;1.00;;;23.50;96.10;;;;;;4938580;28;20058;-76
2023/07/13 16:47:57;;;;;;;1.83;1.00;;;23.70;95.00;;;;;;4947129;28;20651;-79
2023/07/13 16:50:25;;;;;;;1.83;1.15;;;23.70;95.00;;;;;;4978207;28;20060;-81
2023/07/13 16:52:52;;;;;;;2.47;1.30;;;23.90;94.90;;;;;;4945413;28;20811;-78
2023/07/13 16:55:27;;;;;;;2.72;1.45;;;23.90;94.90;;;;;;4959127;28;20141;-81
2023/07/13 16:58:02;;;;;;;3.13;1.00;;;23.80;95.70;;;;;;4957189;28;20134;-79
2023/07/13 17:00:31;;;;;;;1.52;1.10;;;23.70;96.40;;;;;;4950934;28;20062;-82
2023/07/13 17:03:05;;;;;;;2.90;1.20;;;23.30;96.90;;;;;;4963072;28;20395;-78
2023/07/13 17:05:40;;;;;;;2.20;1.23;;;23.00;97.50;;;;;;4966235;28;20535;-79
2023/07/13 17:08:15;;;;;;;1.77;1.02;;;22.80;97.80;;;;;;4983298;28;20518;-79
2023/07/13 17:10:44;;;;;;;2.35;1.10;;;22.50;97.70;;;;;;4951555;28;20240;-83
2023/07/13 17:13:12;;;;;;;1.58;1.00;;;22.30;97.60;;;;;;4992806;28;20469;-77
2023/07/13 17:15:39;;;;;;;1.83;1.10;;;22.20;97.60;;;;;;4978734;28;20046;-78
2023/07/13 17:18:08;;;;;;;1.35;1.02;;;22.30;97.70;;;;;;4980222;28;20038;-80
2023/07/13 17:20:44;;;;;;;0.83;0.80;;;22.20;97.60;;;;;;4958839;28;20057;-81
2023/07/13 17:23:23;;;;;;;1.10;0.60;;;22.10;97.20;;;;;;4963278;28;20390;-78
2023/07/13 17:25:53;;;;;;;1.17;0.77;;;22.30;97.30;;;;;;4982669;28;20049;-81
2023/07/13 17:28:22;;;;;;;1.30;0.88;;;22.30;97.50;;;;;;4984260;28;20053;-82
2023/07/13 17:30:50;;;;;;;1.52;1.00;;;22.40;97.40;;;;;;4997377;28;20664;-79
2023/07/13 17:33:34;;;;;;;1.38;0.90;;;22.60;97.20;;;;;;4979113;28;20061;-80
2023/07/13 17:36:02;;;;;;;1.15;0.70;;;22.90;97.10;;;;;;4967451;28;20060;-80
2023/07/13 17:38:44;;;;;;;1.75;1.02;;;23.10;96.90;;;;;;5001855;28;20088;-80
2023/07/13 17:41:14;;;;;;;2.40;1.33;;;23.40;96.70;;;;;;4984005;28;20054;-80
2023/07/13 17:43:44;;;;;;;0.65;0.65;;;23.70;96.30;;;;;;4951241;28;20050;-83
2023/07/13 17:46:21;;;;;;;1.77;0.80;;;25.10;95.60;;;;;;4981067;28;20054;-78
2023/07/13 17:48:49;;;;;;;1.30;0.70;;;25.10;94.90;;;;;;4954838;28;20462;-80
2023/07/13 17:51:16;;;;;;;2.22;1.15;;;24.70;95.50;;;;;;4957834;28;20058;-79
2023/07/13 17:53:43;;;;;;;1.35;0.90;;;24.30;95.80;;;;;;4980007;28;20084;-82
2023/07/13 17:56:12;;;;;;;1.45;0.73;;;23.70;95.20;;;;;;4980595;28;20734;-85
2023/07/13 17:58:42;;;;;;;2.45;1.30;;;23.30;95.40;;;;;;4999533;28;20145;-85
2023/07/13 18:01:13;;;;;;;1.58;1.00;;;22.90;95.70;;;;;;4986971;28;20156;-78
2023/07/13 18:03:44;;;;;;;2.95;1.10;;;22.50;96.10;;;;;;4982868;28;20121;-81
2023/07/13 18:06:18;;;;;;;1.58;0.77;;;22.20;96.50;;;;;;4977904;28;20254;-81
2023/07/13 18:08:50;;;;;;;1.42;0.90;;;22.00;96.90;;;;;;4986882;28;20045;-79
2023/07/13 18:11:17;;;;;;;1.50;0.98;;;21.90;97.20;;;;;;4982737;28;20046;-80
2023/07/13 18:13:44;;;;;;;1.95;1.08;;;21.80;97.40;;;;;;5008489;28;20054;-78
2023/07/13 18:16:18;;;;;;;1.73;1.60;;;21.60;97.40;;;;;;4994923;28;20085;-89
2023/07/13 18:18:46;;;;;;;2.05;1.10;;;21.50;97.80;;;;;;4986281;28;20050;-78
2023/07/13 18:21:16;;;;;;;1.58;0.98;;;21.30;98.10;;;;;;5000950;28;20059;-75
2023/07/13 18:23:44;;;;;;;1.42;0.80;;;21.20;98.40;;;;;;4995608;28;20049;-77
2023/07/13 18:26:12;;;;;;;1.52;1.10;;;21.20;98.80;;;;;;4998367;28;20123;-80
2023/07/13 18:28:41;;;;;;;1.95;0.93;;;21.10;99.70;;;;;;4973330;28;20077;-77
2023/07/13 18:31:12;;;;;;;1.98;1.17;;;21.00;99.90;;;;;;5001081;28;20077;-79
2023/07/13 18:33:42;;;;;;;1.52;1.00;;;20.70;99.90;;;;;;4976187;28;20439;-84
2023/07/13 18:36:11;;;;;;;2.05;1.20;;;20.50;99.90;;;;;;5001865;28;20041;-80
2023/07/13 18:38:38;;;;;;;1.50;1.05;;;20.40;99.90;;;;;;5011331;28;20042;-83
2023/07/13 18:41:08;;;;;;;3.25;1.30;;;20.40;99.90;;;;;;5000277;28;20080;-82
2023/07/13 18:43:37;;;;;;;1.77;1.13;;;20.30;99.90;;;;;;4981053;28;20081;-81
2023/07/13 18:46:15;;;;;;;2.50;1.05;;;20.20;99.90;;;;;;5001779;28;20418;-82
2023/07/13 18:48:42;;;;;;;1.10;0.77;;;20.00;99.90;;;;;;5005263;28;20046;-77
2023/07/13 18:51:11;;;;;;;1.13;0.70;;;19.90;99.90;;;;;;4987964;28;20116;-83
2023/07/13 18:53:38;;;;;;;1.25;0.75;;;19.80;99.90;;;;;;4998894;28;20084;-83
2023/07/13 18:56:06;;;;;;;1.20;0.70;;;19.60;99.90;;;;;;4992761;28;20057;-82
2023/07/13 18:58:33;;;;;;;1.27;0.70;;;19.50;99.90;;;;;;5001828;28;20139;-75
2023/07/13 19:01:01;;;;;;;1.10;0.50;;;19.40;99.90;;;;;;5004015;28;20062;-75
2023/07/13 19:03:34;;;;;;;0.50;0.40;;;18.90;99.90;;;;;;5000415;28;20046;-75
2023/07/13 19:06:03;;;;;;;0.95;0.60;;;18.60;99.90;;;;;;5002070;28;20060;-79
2023/07/13 19:08:30;;;;;;;0.98;0.68;;;18.40;99.90;;;;;;5001740;28;20127;-80
2023/07/13 19:10:57;;;;;;;0.82;0.57;;;18.20;99.90;;;;;;5002134;28;20045;-83
2023/07/13 19:13:28;;;;;;;0.93;0.65;;;18.10;99.90;;;;;;4995970;28;20053;-75
2023/07/13 19:15:56;;;;;;;0.40;0.40;;;18.00;99.90;;;;;;4980426;28;20050;-81
2023/07/13 19:18:23;;;;;;;0.73;0.50;;;18.00;99.90;;;;;;4981342;28;21872;-80
2023/07/13 19:20:57;;;;;;;0.57;0.55;;;18.00;99.90;;;;;;4998831;28;20916;-76
2023/07/13 19:23:36;;;;;;;0.60;0.50;;;18.00;99.90;;;;;;4993204;28;20050;-77
2023/07/13 19:26:08;;;;;;;0.70;0.50;;;18.00;99.90;;;;;;4994484;28;20050;-78
2023/07/13 19:28:41;;;;;;;1.13;0.70;;;18.10;99.90;;;;;;4991102;28;20046;-78
2023/07/13 19:31:35;;;;;;;0.52;0.40;;;18.20;99.90;;;;;;4984033;28;20143;-78
2023/07/13 19:34:09;;;;;;;0.30;0.30;;;18.20;99.90;;;;;;4993389;28;20096;-77
2023/07/13 19:36:36;;;;;;;;;;;18.30;99.90;;;;;;4999408;28;20444;-80
2023/07/13 19:39:03;;;;;;;0.60;0.40;;;18.30;99.90;;;;;;4996311;28;20057;-79
2023/07/13 19:41:31;;;;;;;0.60;0.47;;;18.30;99.90;;;;;;4972926;28;20077;-81
2023/07/13 19:43:58;;;;;;;0.70;0.55;;;18.30;99.90;;;;;;4959385;28;20935;-77
2023/07/13 19:46:32;;;;;;;1.00;0.50;;;18.30;99.90;;;;;;4987477;28;20076;-79
2023/07/13 19:49:01;;;;;;;0.68;0.52;;;18.30;99.90;;;;;;5000754;28;20049;-80
2023/07/13 19:51:28;;;;;;;1.00;0.70;;;18.30;99.90;;;;;;5001776;28;20508;-78
2023/07/13 19:54:01;;;;;;;0.63;0.52;;;18.30;99.90;;;;;;4984704;28;20053;-77
2023/07/13 19:56:28;;;;;;;0.40;0.30;;;18.20;99.90;;;;;;5003220;28;20053;-79
2023/07/13 19:58:55;;;;;;;0.93;0.60;;;18.20;99.90;;;;;;5001668;28;20050;-77
2023/07/13 20:01:22;;;;;;;0.45;0.40;;;18.10;99.90;;;;;;5001107;28;20058;-77
2023/07/13 20:03:48;;;;;;;0.80;0.68;;;18.10;99.90;;;;;;5001794;28;20056;-78
2023/07/13 20:06:28;;;;;;;0.75;0.52;;;18.10;99.90;;;;;;4984464;28;20131;-82
2023/07/13 20:08:57;;;;;;;0.77;0.50;;;17.90;99.90;;;;;;4987862;28;20077;-76
2023/07/13 20:11:24;;;;;;;0.40;0.40;;;17.90;99.90;;;;;;4989647;28;20065;-77
2023/07/13 20:13:52;;;;;;;0.50;0.45;;;17.90;99.90;;;;;;5010476;28;20108;-77
2023/07/13 20:16:19;;;;;;;0.80;0.60;;;17.70;99.90;;;;;;4964091;28;20046;-79
2023/07/13 20:18:47;;;;;;;0.65;0.55;;;17.70;99.90;;;;;;4993598;28;20082;-77
2023/07/13 20:21:14;;;;;;;0.77;0.50;;;17.70;99.90;;;;;;4980629;28;20050;-79
2023/07/13 20:23:41;;;;;;;0.50;0.50;;;17.60;99.90;;;;;;4990750;28;20564;-79
2023/07/13 20:26:09;;;;;;;0.98;0.65;;;17.60;99.90;;;;;;4999440;28;20065;-79
2023/07/13 20:28:38;;;;;;;1.45;0.52;;;17.50;99.90;;;;;;4998703;28;20520;-77
2023/07/13 20:31:13;;;;;;;1.48;0.68;;;17.50;99.90;;;;;;5000141;28;20042;-78
2023/07/13 20:33:40;;;;;;;1.52;0.70;;;17.40;99.90;;;;;;4983076;28;20557;-82
2023/07/13 20:36:11;;;;;;;1.40;0.60;;;17.40;99.90;;;;;;5001329;28;20104;-81
2023/07/13 20:38:39;;;;;;;0.90;0.73;;;17.40;99.90;;;;;;4980350;28;20405;-79
2023/07/13 20:41:10;;;;;;;0.60;0.60;;;17.40;99.90;;;;;;4999071;28;20053;-80
2023/07/13 20:43:38;;;;;;;1.33;0.82;;;17.30;99.90;;;;;;4981307;28;20129;-78
2023/07/13 20:46:14;;;;;;;0.75;0.50;;;17.30;99.90;;;;;;4994684;28;20104;-77
2023/07/13 20:48:53;;;;;;;1.05;0.60;;;17.30;99.90;;;;;;4993665;28;20076;-80
2023/07/13 20:51:22;;;;;;;0.60;0.47;;;17.30;99.90;;;;;;4996331;28;20128;-84
2023/07/13 20:53:53;;;;;;;1.27;0.80;;;17.20;99.90;;;;;;5014725;28;20478;-77
2023/07/13 20:56:26;;;;;;;0.80;0.70;;;17.20;99.90;;;;;;4993160;28;20414;-77
2023/07/13 20:58:53;;;;;;;1.65;0.85;;;17.10;99.90;;;;;;4980300;28;20073;-84
2023/07/13 21:01:33;;;;;;;0.88;0.73;;;17.10;99.90;;;;;;5016979;28;20129;-84
2023/07/13 21:04:04;;;;;;;;;;;17.10;99.90;;;;;;4997058;28;20060;-77
2023/07/13 21:06:33;;;;;;;1.10;0.50;;;17.00;99.90;;;;;;4992865;28;19925;-76
2023/07/13 21:09:00;;;;;;;0.90;0.60;;;17.10;99.90;;;;;;4992751;28;20054;-77
2023/07/13 21:11:27;;;;;;;0.50;0.50;;;17.00;99.90;;;;;;4997702;28;20046;-80
2023/07/13 21:13:56;;;;;;;0.75;0.60;;;17.00;99.90;;;;;;4979781;28;20538;-83
2023/07/13 21:16:25;;;;;;;1.70;0.80;;;17.00;99.90;;;;;;4999412;28;20054;-78
2023/07/13 21:18:52;;;;;;;0.68;0.63;;;17.00;99.90;;;;;;5000336;28;20065;-83
2023/07/13 21:21:23;;;;;;;1.05;0.63;;;16.90;99.90;;;;;;4984611;28;20045;-80
2023/07/13 21:23:51;;;;;;;1.58;0.85;;;16.90;99.90;;;;;;4997196;28;20049;-79
2023/07/13 21:26:19;;;;;;;1.65;0.60;;;16.90;99.90;;;;;;4999980;28;20077;-82
2023/07/13 21:28:47;;;;;;;1.90;1.00;;;16.90;99.90;;;;;;5001759;28;20153;-80
2023/07/13 21:31:28;;;;;;;1.25;0.80;;;16.90;99.90;;;;;;5000085;28;20417;-80
2023/07/13 21:34:01;;;;;;;1.15;0.70;;;16.80;99.90;;;;;;4974083;28;20064;-78
2023/07/13 21:36:29;;;;;;;0.90;0.60;;;16.80;99.90;;;;;;4998762;28;20058;-78
2023/07/13 21:39:00;;;;;;;1.13;0.80;;;16.80;99.90;;;;;;5001160;28;20049;-79
2023/07/13 21:41:31;;;;;;;0.45;0.45;;;16.80;99.90;;;;;;4999165;28;20053;-79
2023/07/13 21:43:59;;;;;;;0.90;0.60;;;16.80;99.90;;;;;;4990645;28;20061;-79
2023/07/13 21:46:48;;;;;;;0.80;0.60;;;16.80;99.90;;;;;;4996912;28;20054;-78
2023/07/13 21:49:16;;;;;;;1.17;0.70;;;16.70;99.90;;;;;;4999957;28;20167;-78
2023/07/13 21:51:42;;;;;;;0.82;0.63;;;16.70;99.90;;;;;;4994348;28;20069;-78
2023/07/13 21:54:15;;;;;;;0.95;0.57;;;16.70;99.90;;;;;;4999864;28;20053;-84
2023/07/13 21:56:42;;;;;;;1.53;0.70;;;16.60;99.90;;;;;;4992403;28;20050;-80
2023/07/13 21:59:27;;;;;;;0.73;0.50;;;16.60;99.90;;;;;;5004958;28;20073;-80
2023/07/13 22:01:55;;;;;;;0.80;0.80;;;16.60;99.90;;;;;;5004623;28;20053;-77
2023/07/13 22:04:24;;;;;;;1.13;0.60;;;16.60;99.90;;;;;;5003525;28;20436;-78
2023/07/13 22:06:51;;;;;;;1.13;0.90;;;16.50;99.90;;;;;;5006878;28;20348;-77
2023/07/13 22:09:22;;;;;;;0.80;0.60;;;16.50;99.90;;;;;;5004405;28;20870;-81
2023/07/13 22:11:49;;;;;;;1.17;0.90;;;16.50;99.90;;;;;;5005285;28;20065;-78
2023/07/13 22:14:16;;;;;;;1.38;0.75;;;16.50;99.90;;;;;;5005917;28;20296;-78
2023/07/13 22:16:43;;;;;;;0.70;0.60;;;16.40;99.90;;;;;;4954462;28;20057;-84
2023/07/13 22:19:15;;;;;;;0.80;0.63;;;16.50;99.90;;;;;;4953658;28;20085;-79
2023/07/13 22:21:42;;;;;;;1.42;0.85;;;16.40;99.90;;;;;;4980924;28;20456;-81
2023/07/13 22:24:17;;;;;;;1.13;0.80;;;16.40;99.90;;;;;;4970697;28;20050;-78
2023/07/13 22:26:44;;;;;;;0.57;0.52;;;16.40;99.90;;;;;;4987324;28;20556;-78
2023/07/13 22:29:11;;;;;;;0.60;0.50;;;16.30;99.90;;;;;;4998526;28;20046;-78
2023/07/13 22:31:38;;;;;;;1.08;0.65;;;16.30;99.90;;;;;;5005847;28;20068;-79
2023/07/13 22:34:13;;;;;;;0.68;0.57;;;16.30;99.90;;;;;;4988863;28;20534;-80
2023/07/13 22:36:40;;;;;;;1.02;0.75;;;16.30;99.90;;;;;;4953683;28;20081;-82
2023/07/13 22:39:10;;;;;;;0.80;0.68;;;16.30;99.90;;;;;;4970567;28;20433;-80
2023/07/13 22:41:37;;;;;;;0.93;0.60;;;16.30;99.90;;;;;;5005927;28;20418;-84
2023/07/13 22:44:18;;;;;;;1.33;0.70;;;16.30;99.90;;;;;;4981592;28;20054;-81
2023/07/13 22:46:45;;;;;;;0.95;0.60;;;16.30;99.90;;;;;;4987249;28;20050;-77
2023/07/13 22:49:27;;;;;;;0.93;0.60;;;16.30;99.90;;;;;;4958362;28;20064;-80
2023/07/13 22:51:54;;;;;;;1.05;0.60;;;16.30;99.90;;;;;;5010169;28;20502;-83
2023/07/13 22:54:23;;;;;;;0.52;0.40;;;16.30;99.90;;;;;;4982571;28;20725;-83
2023/07/13 22:56:50;;;;;;;0.93;0.63;;;16.20;99.90;;;;;;4960544;28;20080;-77
2023/07/13 22:59:17;;;;;;;1.00;0.80;;;16.30;99.90;;;;;;4975933;28;20117;-83
2023/07/13 23:01:44;;;;;;;1.23;0.68;;;16.20;99.90;;;;;;4988064;28;20532;-80
2023/07/13 23:04:28;;;;;;;0.98;0.77;;;16.20;99.90;;;;;;4985947;28;20084;-85
2023/07/13 23:06:56;;;;;;;0.95;0.70;;;16.20;99.90;;;;;;4972287;28;20595;-78
2023/07/13 23:09:24;;;;;;;0.70;0.45;;;16.20;99.90;;;;;;5001412;28;20077;-78
2023/07/13 23:11:51;;;;;;;0.40;0.40;;;16.20;99.90;;;;;;5004930;28;20054;-78
2023/07/13 23:14:18;;;;;;;0.80;0.55;;;16.20;99.90;;;;;;4990198;28;20132;-78
2023/07/13 23:16:47;;;;;;;0.90;0.52;;;16.20;99.90;;;;;;4973111;28;20461;-76
2023/07/13 23:19:41;;;;;;;1.52;0.80;;;16.20;99.90;;;;;;5004387;28;20141;-77